• Join FlightAware (Why Join?)
  • Login
  • US Flag 
05:06AM EST


 

Airport Tracker/Info


-or-


 

Live Flight TrackerFlight Track Log ✈ EJA605 ✈ 01-Nov-2013 ✈ KSBN - KPWK

Flight Track Log - Related Links

Times and Time Zones

All times are in EDT time to prevent confusion due to time zone crossing. See the EJA605 flight status page for this flight to view local times or setup timezone preferences in your user account.

Time Position Orientation Groundspeed Altitude Reporting Facility
EDT Latitude Longitude Course Direction KTS MPH feet Rate Location/Type
06:05PM 41.9081 -86.6314 318° Northwest 253 291 4,100  Level Chicago Center
06:06PM 41.9583 -86.6933 318° Northwest 248 285 4,000 -60 Descending Chicago Center
06:07PM 41.8385 -86.8143 275° West  Level Estimated
06:07PM 42.0158 -86.7633 318° Northwest 250 288 4,000  Level Chicago Center
06:08PM 41.8819 -86.8802 311° West  Level FlightAware Approximate
06:08PM 42.0589 -86.8189 316° Northwest 244 281 4,000  Level Chicago Center
06:09PM 42.1114 -86.8842 317° Northwest 254 292 4,000  Level Chicago Center
06:10PM 42.1561 -86.9767 303° West 255 293 4,000 -60 Level Chicago Center
06:11PM 42.1625 -87.0589 276° West 249 287 3,900 -60 Descending Chicago Center
06:12PM 42.1692 -87.1686 275° West 247 284 3,900  Level Chicago Center
06:13PM 42.1764 -87.2594 276° West 245 282 3,900  Level Chicago Center
06:14PM 42.1911 -87.3464 283° West 242 278 3,900  Level Chicago Center
06:15PM 42.2089 -87.4325 286° West 241 277 3,900 -300 Level Chicago Center
06:16PM 42.2250 -87.5197 284° West 241 277 3,300 -540 Descending Chicago Center
06:17PM 42.2431 -87.6192 284° West 237 273 2,900 -240 Descending Chicago Center
06:18PM 42.2564 -87.6917 284° West 224 258 2,900  Level Chicago Center
06:19PM 42.2711 -87.7606 286° West 210 242 2,900  Level Chicago Center
06:20PM 42.2836 -87.8278 284° West 199 229 2,900  Level Chicago Center
06:21PM 42.2956 -87.8975 283° West 194 223 2,900  Level Chicago Center
06:22PM 42.2836 -87.9786 259° West 196 226 3,000 -300 Climbing Chicago Center
06:23PM 42.2319 -87.9653 169° South 198 228 2,400 -540 Descending Chicago Center
06:24PM 42.1850 -87.9403 158° South 189 217 2,000 -300 Descending Chicago Center
06:25PM 42.1392 -87.9147 158° South 188 216 1,800 -240 Descending Chicago Center